Colgate, North Dakota
Current Conditions -  °F | °C
As of 11:15 AM on Friday 19 Dec 2014 (Local Time) from KBAC Reporting Station
Haze Haze  
Wind Chill: 15°   Ceiling: 300
Heat Index: 27°   Visibility: 2.5mi
Dew Point: 27°   Wind: 15mph
Humidity: 100%   Direction: 180°S
Pressure: 30"   Gusts: NA
Location:  47.1965°N, 97.7696°W
Report Text: KBAC 191715Z AUTO 18013KT 2 1/2SM BR OVC003 M03/M03 A3000 RMK AO2
Loading
Personal Weather Stations






























Interactive Weather Map New forecast layout! Learn more

10-Day Weather Forecast

Advertisements
Track Severe Weather on mobile